createdAt,value
2019-04-23T00:01:41.859Z,33.68
2019-04-23T00:04:10.174Z,33.71
2019-04-23T00:07:12.871Z,33.74
2019-04-23T00:09:27.698Z,33.79
2019-04-23T00:11:51.665Z,33.88
2019-04-23T00:14:35.331Z,33.88
2019-04-23T00:16:59.202Z,33.94
2019-04-23T00:19:37.112Z,33.96
2019-04-23T00:22:36.621Z,34.00
2019-04-23T00:25:25.680Z,34.01
2019-04-23T00:30:12.959Z,34.10
2019-04-23T00:32:42.182Z,34.14
2019-04-23T00:35:12.566Z,34.17
2019-04-23T00:37:48.239Z,34.22
2019-04-23T00:40:19.095Z,34.23
2019-04-23T00:42:53.250Z,34.27
2019-04-23T00:45:35.909Z,34.32
2019-04-23T00:47:55.045Z,34.35
2019-04-23T00:50:38.409Z,34.38
2019-04-23T00:53:04.252Z,34.40
2019-04-23T00:55:43.058Z,34.43
2019-04-23T01:00:46.022Z,34.51
2019-04-23T01:03:27.111Z,34.55
2019-04-23T01:05:46.984Z,34.60
2019-04-23T01:08:26.477Z,34.63
2019-04-23T01:13:37.841Z,34.73
2019-04-23T01:18:54.585Z,34.78
2019-04-23T01:21:24.263Z,34.84
2019-04-23T01:24:25.049Z,34.91
2019-04-23T01:27:53.047Z,34.94
2019-04-23T01:30:11.400Z,34.99
2019-04-23T01:37:44.803Z,35.06
2019-04-23T01:40:35.167Z,35.11
2019-04-23T01:42:45.768Z,35.15
2019-04-23T01:45:24.195Z,35.20
2019-04-23T01:47:50.185Z,35.25
2019-04-23T01:52:59.279Z,35.31
2019-04-23T01:58:23.871Z,35.38
2019-04-23T02:03:12.961Z,35.46
2019-04-23T02:05:41.569Z,35.52
2019-04-23T02:08:14.546Z,35.58
2019-04-23T02:10:53.145Z,35.61
2019-04-23T02:13:25.352Z,35.67
2019-04-23T02:16:05.121Z,35.69
2019-04-23T02:18:23.371Z,35.74
2019-04-23T02:20:59.016Z,35.78
2019-04-23T02:28:56.215Z,35.92
2019-04-23T02:31:40.818Z,36.00
2019-04-23T02:36:26.417Z,36.10
2019-04-23T02:38:55.465Z,36.20
2019-04-23T02:44:13.194Z,36.28
2019-04-23T02:46:33.972Z,36.30
2019-04-23T02:51:43.857Z,36.40
2019-04-23T03:01:57.920Z,36.55
2019-04-23T03:04:34.929Z,36.58
2019-04-23T03:07:01.081Z,36.62
2019-04-23T03:12:06.374Z,36.67
2019-04-23T03:14:33.436Z,36.73
2019-04-23T03:17:13.120Z,36.76
2019-04-23T03:20:15.144Z,36.83
2019-04-23T03:22:56.982Z,36.88
2019-04-23T03:25:26.159Z,36.91
2019-04-23T03:32:30.795Z,37.00
2019-04-23T03:38:39.416Z,37.13
2019-04-23T03:41:06.997Z,37.16
2019-04-23T03:43:33.330Z,37.20
2019-04-23T03:46:16.179Z,37.25
2019-04-23T03:48:41.690Z,37.29
2019-04-23T03:51:03.348Z,37.35
2019-04-23T03:53:52.443Z,37.40
2019-04-23T03:56:38.043Z,37.47
2019-04-23T03:58:42.741Z,37.52
2019-04-23T04:01:25.240Z,37.61
2019-04-23T04:06:33.778Z,37.70
2019-04-23T04:14:15.996Z,37.91
2019-04-23T04:16:34.314Z,37.97
2019-04-23T04:19:22.594Z,38.03
2019-04-23T04:24:22.525Z,38.18
2019-04-23T04:41:58.849Z,38.66
2019-04-23T04:46:58.691Z,38.81
2019-04-23T04:49:53.340Z,38.90
2019-04-23T04:54:29.105Z,39.07
2019-04-23T04:57:28.361Z,39.14
2019-04-23T05:00:01.798Z,39.25
2019-04-23T05:02:28.321Z,39.34
2019-04-23T05:05:02.177Z,39.43
2019-04-23T05:07:40.235Z,39.55
2019-04-23T05:10:10.572Z,39.68
2019-04-23T05:12:32.422Z,39.80
2019-04-23T05:15:03.054Z,39.96
2019-04-23T05:18:08.100Z,40.11
2019-04-23T05:20:37.018Z,40.22
2019-04-23T05:23:16.448Z,40.39
2019-04-23T05:25:40.069Z,40.50
2019-04-23T05:30:44.519Z,40.78
2019-04-23T05:33:18.624Z,40.89
2019-04-23T05:43:30.813Z,41.65
2019-04-23T05:45:57.399Z,41.94
2019-04-23T05:48:50.875Z,42.13
2019-04-23T05:51:06.089Z,42.33
2019-04-23T05:53:42.546Z,42.49
2019-04-23T05:58:45.375Z,42.87
2019-04-23T06:04:24.606Z,43.18
2019-04-23T06:06:54.134Z,43.36
2019-04-23T06:09:14.081Z,43.46
2019-04-23T06:14:19.018Z,43.70
2019-04-23T06:17:02.128Z,43.82
2019-04-23T06:24:44.267Z,44.05
2019-04-23T06:32:06.130Z,44.33
2019-04-23T06:34:42.803Z,44.37
2019-04-23T06:37:46.601Z,44.42
2019-04-23T06:42:20.853Z,44.52
2019-04-23T06:47:24.825Z,44.65
2019-04-23T06:49:55.687Z,44.75
2019-04-23T06:52:43.761Z,44.75
2019-04-23T06:55:01.097Z,44.79
2019-04-23T06:57:38.509Z,44.80
2019-04-23T07:00:30.719Z,44.85
2019-04-23T07:02:49.543Z,44.84
2019-04-23T07:05:20.709Z,44.89
2019-04-23T07:07:50.291Z,44.85
2019-04-23T07:10:26.654Z,44.81
2019-04-23T07:12:59.700Z,44.81
2019-04-23T07:15:46.525Z,44.85
2019-04-23T07:18:04.141Z,44.96
2019-04-23T07:20:33.566Z,44.93
2019-04-23T07:25:44.276Z,44.85
2019-04-23T07:28:14.153Z,44.83
2019-04-23T07:30:58.830Z,44.80
2019-04-23T07:33:19.072Z,44.81
2019-04-23T07:35:56.387Z,44.83
2019-04-23T07:39:01.631Z,44.83
2019-04-23T07:41:52.938Z,44.79
2019-04-23T07:44:29.484Z,44.69
2019-04-23T07:47:20.472Z,44.73
2019-04-23T07:50:00.667Z,44.71
2019-04-23T07:55:02.616Z,44.53
2019-04-23T07:57:25.133Z,44.42
2019-04-23T08:00:00.467Z,44.34
2019-04-23T08:02:43.763Z,44.31
2019-04-23T08:07:44.105Z,44.19
2019-04-23T08:10:14.189Z,44.16
2019-04-23T08:12:46.976Z,44.11
2019-04-23T08:15:15.129Z,44.06
2019-04-23T08:17:50.493Z,44.04
2019-04-23T08:20:26.854Z,43.98
2019-04-23T08:22:54.878Z,43.91
2019-04-23T08:25:56.473Z,43.92
2019-04-23T08:28:25.484Z,43.95
2019-04-23T08:30:53.719Z,43.83
2019-04-23T08:33:23.438Z,43.76
2019-04-23T08:35:58.465Z,43.70
2019-04-23T08:38:30.880Z,43.58
2019-04-23T08:41:12.858Z,43.55
2019-04-23T08:43:40.759Z,43.47
2019-04-23T08:46:33.525Z,43.42
2019-04-23T08:49:06.536Z,43.45
2019-04-23T08:51:45.901Z,43.36
2019-04-23T08:54:06.276Z,43.20
2019-04-23T08:56:46.113Z,43.08
2019-04-23T08:59:22.839Z,43.01
2019-04-23T09:02:00.699Z,42.89
2019-04-23T09:04:18.528Z,42.79
2019-04-23T09:07:00.239Z,42.69
2019-04-23T09:09:27.882Z,42.60
2019-04-23T09:11:54.368Z,42.63
2019-04-23T09:14:28.264Z,42.50
2019-04-23T09:17:04.899Z,42.47
2019-04-23T09:19:46.046Z,42.21
2019-04-23T09:22:20.889Z,42.12
2019-04-23T09:27:22.515Z,42.04
2019-04-23T09:30:00.945Z,41.76
2019-04-23T09:47:00.773Z,40.98
2019-04-23T09:52:09.583Z,40.83
2019-04-23T09:54:41.825Z,40.77
2019-04-23T09:57:06.154Z,40.70
2019-04-23T09:59:47.343Z,40.56
2019-04-23T10:02:08.720Z,40.58
2019-04-23T10:04:33.870Z,40.42
2019-04-23T10:07:07.221Z,40.33
2019-04-23T10:09:30.080Z,40.17
2019-04-23T10:12:02.981Z,40.13
2019-04-23T10:14:34.508Z,39.86
2019-04-23T10:17:06.391Z,39.75
2019-04-23T10:19:37.764Z,39.80
2019-04-23T10:22:11.416Z,39.70
2019-04-23T10:24:45.637Z,39.48
2019-04-23T10:27:19.004Z,39.20
2019-04-23T10:29:49.929Z,39.14
2019-04-23T10:32:21.846Z,39.07
2019-04-23T10:35:03.577Z,38.95
2019-04-23T10:37:32.950Z,38.69
2019-04-23T10:40:01.233Z,38.69
2019-04-23T10:42:30.722Z,38.50
2019-04-23T10:45:47.909Z,38.32
2019-04-23T10:49:02.591Z,38.32
2019-04-23T10:51:33.859Z,38.08
2019-04-23T10:54:25.080Z,37.94
2019-04-23T10:59:35.057Z,37.71
2019-04-23T11:10:03.754Z,37.14
2019-04-23T11:13:10.722Z,36.99
2019-04-23T11:18:02.880Z,36.82
2019-04-23T11:20:54.071Z,36.75
2019-04-23T11:23:27.654Z,36.66
2019-04-23T11:26:01.227Z,36.50
2019-04-23T11:31:13.890Z,36.32
2019-04-23T11:33:43.071Z,36.18
2019-04-23T11:36:49.722Z,36.07
2019-04-23T11:41:51.736Z,35.90
2019-04-23T11:49:44.854Z,35.55
2019-04-23T11:52:05.139Z,35.50
2019-04-23T11:54:31.026Z,35.23
2019-04-23T11:57:16.396Z,35.12
2019-04-23T12:02:36.981Z,35.00
2019-04-23T12:05:20.470Z,34.82
2019-04-23T12:08:26.794Z,34.74
2019-04-23T12:14:13.405Z,34.49
2019-04-23T12:16:47.249Z,34.34
2019-04-23T12:19:51.338Z,34.28
2019-04-23T12:21:58.986Z,34.12
2019-04-23T12:24:50.617Z,34.04
2019-04-23T12:27:00.685Z,33.95
2019-04-23T12:29:33.617Z,33.81
2019-04-23T12:32:45.153Z,33.62
2019-04-23T12:37:44.914Z,33.61
2019-04-23T12:40:24.941Z,33.49
2019-04-23T12:43:12.736Z,33.30
2019-04-23T12:45:31.736Z,33.23
2019-04-23T12:48:08.330Z,33.05
2019-04-23T12:53:12.481Z,32.95
2019-04-23T12:55:40.396Z,32.82
2019-04-23T12:58:15.746Z,32.72
2019-04-23T13:00:44.444Z,32.65
2019-04-23T13:03:25.196Z,32.55
2019-04-23T13:05:43.507Z,32.45
2019-04-23T13:08:34.025Z,32.40
2019-04-23T13:10:57.294Z,32.39
2019-04-23T13:16:02.985Z,32.12
2019-04-23T13:18:41.549Z,32.05
2019-04-23T13:21:29.969Z,32.01
2019-04-23T13:23:51.171Z,31.90
2019-04-23T13:26:08.982Z,31.87
2019-04-23T13:28:50.990Z,31.75
2019-04-23T13:31:25.710Z,31.69
2019-04-23T13:33:58.058Z,31.61
2019-04-23T13:36:37.824Z,31.57
2019-04-23T13:39:02.395Z,31.49
2019-04-23T13:41:31.675Z,31.34
2019-04-23T13:44:14.283Z,31.24
2019-04-23T13:46:45.277Z,31.12
2019-04-23T13:49:16.373Z,31.08
2019-04-23T13:51:46.679Z,31.03
2019-04-23T13:54:29.878Z,30.92
2019-04-23T13:59:40.183Z,30.87
2019-04-23T14:02:09.189Z,30.74
2019-04-23T14:07:30.378Z,30.55
2019-04-23T14:10:11.783Z,30.45
2019-04-23T14:12:31.988Z,30.38
2019-04-23T14:15:06.457Z,30.31
2019-04-23T14:17:40.885Z,30.27
2019-04-23T14:20:08.645Z,30.20
2019-04-23T14:25:10.094Z,30.05
2019-04-23T14:28:01.379Z,29.94
2019-04-23T14:30:38.167Z,29.86
2019-04-23T14:32:54.327Z,29.78
2019-04-23T14:35:28.444Z,29.72
2019-04-23T14:38:11.314Z,29.66
2019-04-23T14:40:34.346Z,29.58
2019-04-23T14:46:15.681Z,29.48
2019-04-23T14:51:00.299Z,29.33
2019-04-23T14:53:24.536Z,29.24
2019-04-23T14:56:20.182Z,29.21
2019-04-23T15:01:35.818Z,29.06
2019-04-23T15:04:25.226Z,28.99
2019-04-23T15:09:13.973Z,28.92
2019-04-23T15:11:52.692Z,28.87
2019-04-23T15:14:18.968Z,28.82
2019-04-23T15:16:55.104Z,28.75
2019-04-23T15:19:37.362Z,28.68
2019-04-23T15:22:04.808Z,28.63
2019-04-23T15:29:27.447Z,28.45
2019-04-23T15:32:21.652Z,28.38
2019-04-23T15:34:45.322Z,28.27
2019-04-23T15:37:33.872Z,28.16
2019-04-23T15:39:56.624Z,28.09
2019-04-23T15:42:26.135Z,28.06
2019-04-23T15:52:46.236Z,27.90
2019-04-23T16:00:05.735Z,27.76
2019-04-23T16:02:15.086Z,27.73
2019-04-23T16:04:46.905Z,27.68
2019-04-23T16:07:35.549Z,27.62
2019-04-23T16:10:25.918Z,27.57
2019-04-23T16:12:56.573Z,27.54
2019-04-23T16:15:27.076Z,27.50
2019-04-23T16:18:18.464Z,27.46
2019-04-23T16:20:51.605Z,27.43
2019-04-23T16:23:17.239Z,27.36
2019-04-23T16:25:49.837Z,27.30
2019-04-23T16:28:53.409Z,27.28
2019-04-23T16:31:13.009Z,27.23
2019-04-23T16:33:51.118Z,27.20
2019-04-23T16:36:19.672Z,27.15
2019-04-23T16:38:52.223Z,27.10
2019-04-23T16:41:24.373Z,27.09
2019-04-23T16:43:57.723Z,27.02
2019-04-23T16:46:27.231Z,26.99
2019-04-23T16:49:10.221Z,26.94
2019-04-23T16:54:10.040Z,26.87
2019-04-23T16:56:55.393Z,26.84
2019-04-23T17:01:50.467Z,26.76
2019-04-23T17:04:28.609Z,26.76
2019-04-23T17:09:29.290Z,26.69
2019-04-23T17:14:37.265Z,26.63
2019-04-23T17:16:59.958Z,26.61
2019-04-23T17:20:04.342Z,26.57
2019-04-23T17:22:09.909Z,26.55
2019-04-23T17:24:55.651Z,26.52
2019-04-23T17:29:55.648Z,26.48
2019-04-23T17:32:27.950Z,26.46
2019-04-23T17:37:57.787Z,26.40
2019-04-23T17:40:32.484Z,26.35
2019-04-23T17:43:01.470Z,26.34
2019-04-23T17:50:56.845Z,26.29
2019-04-23T17:53:25.288Z,26.23
2019-04-23T17:56:08.109Z,26.24
2019-04-23T18:03:50.219Z,26.13
2019-04-23T18:08:49.394Z,26.12
2019-04-23T18:11:31.355Z,26.08
2019-04-23T18:13:57.404Z,26.06
2019-04-23T18:16:35.473Z,26.04
2019-04-23T18:21:58.953Z,25.98
2019-04-23T18:27:20.828Z,25.93
2019-04-23T18:29:45.893Z,25.92
2019-04-23T18:32:30.214Z,25.89
2019-04-23T18:37:30.032Z,25.82
2019-04-23T18:39:56.551Z,25.80
2019-04-23T18:42:41.742Z,25.78
2019-04-23T18:45:22.936Z,25.77
2019-04-23T18:47:48.726Z,25.73
2019-04-23T18:50:29.201Z,25.72
2019-04-23T18:52:55.572Z,25.69
2019-04-23T18:55:45.157Z,25.69
2019-04-23T19:00:45.165Z,25.67
2019-04-23T19:03:34.365Z,25.65
2019-04-23T19:06:18.703Z,25.65
2019-04-23T19:08:59.710Z,25.65
2019-04-23T19:11:51.220Z,25.66
2019-04-23T19:14:23.145Z,25.62
2019-04-23T19:17:07.525Z,25.63
2019-04-23T19:19:19.639Z,25.62
2019-04-23T19:22:12.298Z,25.61
2019-04-23T19:29:43.893Z,25.59
2019-04-23T19:32:00.603Z,25.59
2019-04-23T19:37:35.245Z,25.56
2019-04-23T19:39:45.324Z,25.56
2019-04-23T19:42:15.702Z,25.58
2019-04-23T19:47:27.188Z,25.59
2019-04-23T19:49:51.330Z,25.60
2019-04-23T19:52:34.602Z,25.58
2019-04-23T19:57:33.846Z,25.61
2019-04-23T20:02:55.369Z,25.65
2019-04-23T20:05:05.648Z,25.66
2019-04-23T20:07:52.203Z,25.66
2019-04-23T20:10:03.530Z,25.67
2019-04-23T20:13:01.974Z,25.68
2019-04-23T20:15:13.551Z,25.73
2019-04-23T20:20:25.370Z,25.74
2019-04-23T20:22:51.550Z,25.75
2019-04-23T20:25:53.834Z,25.74
2019-04-23T20:31:24.187Z,25.76
2019-04-23T20:34:02.920Z,25.80
2019-04-23T20:36:32.442Z,25.78
2019-04-23T20:39:03.968Z,25.79
2019-04-23T20:41:55.116Z,25.77
2019-04-23T20:44:40.099Z,25.76
2019-04-23T21:00:09.072Z,25.79
2019-04-23T21:05:27.705Z,25.79
2019-04-23T21:08:26.945Z,25.83
2019-04-23T21:10:41.176Z,25.84
2019-04-23T21:13:27.180Z,25.85
2019-04-23T21:15:46.287Z,25.86
2019-04-23T21:25:47.464Z,25.86
2019-04-23T21:28:37.326Z,25.87
2019-04-23T21:31:09.128Z,25.88
2019-04-23T21:33:43.891Z,25.90
2019-04-23T21:39:20.305Z,25.96
2019-04-23T21:44:33.989Z,25.96
2019-04-23T21:47:09.929Z,26.00
2019-04-23T21:49:56.270Z,26.03
2019-04-23T21:52:11.485Z,26.03
2019-04-23T21:54:44.149Z,26.06
2019-04-23T21:57:15.762Z,26.07
2019-04-23T21:59:52.906Z,26.06
2019-04-23T22:02:23.328Z,26.06
2019-04-23T22:04:52.759Z,26.05
2019-04-23T22:07:29.467Z,26.06
2019-04-23T22:09:57.224Z,26.10
2019-04-23T22:12:34.186Z,26.13
2019-04-23T22:15:04.744Z,26.15
2019-04-23T22:17:39.654Z,26.16
2019-04-23T22:20:21.493Z,26.16
2019-04-23T22:22:56.325Z,26.18
2019-04-23T22:25:13.058Z,26.17
2019-04-23T22:27:54.759Z,26.19
2019-04-23T22:30:30.456Z,26.20
2019-04-23T22:33:03.245Z,26.24
2019-04-23T22:35:34.879Z,26.26
2019-04-23T22:38:13.058Z,26.28
2019-04-23T22:40:34.383Z,26.29
2019-04-23T22:43:20.575Z,26.29
2019-04-23T22:50:59.333Z,26.37
2019-04-23T22:55:57.277Z,26.38
2019-04-23T22:58:27.708Z,26.38
2019-04-23T23:01:45.177Z,26.42
2019-04-23T23:04:08.752Z,26.42
2019-04-23T23:06:49.426Z,26.42
2019-04-23T23:09:23.192Z,26.44
2019-04-23T23:11:50.512Z,26.50
2019-04-23T23:16:50.353Z,26.54
2019-04-23T23:19:46.336Z,26.55
2019-04-23T23:29:27.675Z,26.65
2019-04-23T23:34:54.194Z,26.70
2019-04-23T23:37:07.146Z,26.74
2019-04-23T23:42:18.117Z,26.77
2019-04-23T23:47:14.881Z,26.86
2019-04-23T23:49:56.903Z,26.87
2019-04-23T23:52:25.425Z,26.90
2019-04-23T23:54:59.403Z,26.96
2019-04-23T23:57:23.464Z,27.01
